Time;durP1;ratioP1;P1;durP2;ratioP2;P2;SDS_P1;SDS_P2;PMS_P1;PMS_P2;Temp;Humidity;BMP_temperature;BMP_pressure;BME280_temperature;BME280_humidity;BME280_pressure;Samples;Min_cycle;Max_cycle;Signal;HPM_P1;HPM_P2
2023/09/18 00:01:23;;;;;;;43.60;34.90;;;;;;;11.71;100.00;101763.78;105503;1260;72588;-73
2023/09/18 00:03:51;;;;;;;42.20;34.20;;;;;;;11.69;100.00;101761.73;105650;1255;62041;-70
2023/09/18 00:06:19;;;;;;;46.60;36.00;;;;;;;11.67;100.00;101764.13;105614;1260;59696;-73
2023/09/18 00:08:48;;;;;;;44.40;34.60;;;;;;;11.66;100.00;101766.65;105676;1260;73294;-71
2023/09/18 00:11:15;;;;;;;43.40;33.60;;;;;;;11.65;100.00;101770.17;105561;1254;63750;-73
2023/09/18 00:13:43;;;;;;;47.90;32.70;;;;;;;11.64;100.00;101774.27;105373;1254;71758;-72
2023/09/18 00:16:12;;;;;;;41.20;33.70;;;;;;;11.61;100.00;101774.17;105544;1260;61867;-69
2023/09/18 00:18:41;;;;;;;43.10;33.50;;;;;;;11.59;100.00;101766.09;105484;1253;59903;-71
2023/09/18 00:21:10;;;;;;;42.00;33.30;;;;;;;11.58;100.00;101763.15;105607;1260;71719;-71
2023/09/18 00:23:37;;;;;;;41.00;32.30;;;;;;;11.58;100.00;101766.64;105403;1254;63605;-70
2023/09/18 00:26:05;;;;;;;41.40;33.00;;;;;;;11.57;100.00;101768.60;105419;1257;71125;-70
2023/09/18 00:28:32;;;;;;;44.70;33.00;;;;;;;11.55;100.00;101766.95;105466;1260;61604;-72
2023/09/18 00:31:00;;;;;;;39.70;34.10;;;;;;;11.53;100.00;101768.61;105645;1255;59617;-73
2023/09/18 00:33:28;;;;;;;42.70;34.00;;;;;;;11.51;100.00;101767.14;105707;1255;73134;-72
2023/09/18 00:35:55;;;;;;;38.10;31.20;;;;;;;11.48;100.00;101764.83;105651;1260;64055;-72
2023/09/18 00:38:23;;;;;;;41.50;33.40;;;;;;;11.46;100.00;101764.55;105488;1263;72697;-72
2023/09/18 00:40:50;;;;;;;43.80;32.70;;;;;;;11.44;100.00;101768.69;105673;1260;60397;-72
2023/09/18 00:43:18;;;;;;;44.70;33.40;;;;;;;11.40;100.00;101761.66;105698;1255;60465;-73
2023/09/18 00:45:45;;;;;;;36.60;30.40;;;;;;;11.37;100.00;101762.48;105583;1254;73064;-74
2023/09/18 00:48:14;;;;;;;43.10;32.30;;;;;;;11.34;100.00;101761.42;105577;1260;63567;-71
2023/09/18 00:50:43;;;;;;;43.40;32.40;;;;;;;11.32;100.00;101760.46;105649;1260;72736;-74
2023/09/18 00:53:13;;;;;;;38.60;31.90;;;;;;;11.30;100.00;101762.66;105633;1260;61502;-70
2023/09/18 00:55:41;;;;;;;42.70;33.20;;;;;;;11.27;100.00;101764.02;105581;1254;60059;-70
2023/09/18 00:58:08;;;;;;;41.30;31.40;;;;;;;11.25;100.00;101764.45;105653;1254;73128;-74
2023/09/18 01:00:36;;;;;;;42.30;32.00;;;;;;;11.25;100.00;101766.91;105660;1257;63492;-71
2023/09/18 01:03:03;;;;;;;39.70;30.90;;;;;;;11.24;100.00;101763.46;105604;1258;73192;-71
2023/09/18 01:05:33;;;;;;;42.50;32.30;;;;;;;11.23;100.00;101760.34;105590;1254;60742;-68
2023/09/18 01:08:00;;;;;;;40.10;30.20;;;;;;;11.23;100.00;101758.40;105717;1259;59688;-72
2023/09/18 01:10:34;;;;;;;38.00;28.90;;;;;;;11.23;100.00;101758.60;105807;1257;71691;-73
2023/09/18 01:13:13;;;;;;;36.70;29.60;;;;;;;11.21;100.00;101761.48;105934;1257;61320;-72
2023/09/18 01:15:48;;;;;;;44.20;31.20;;;;;;;11.18;100.00;101759.32;105725;1258;71837;-68
2023/09/18 01:18:16;;;;;;;38.20;29.90;;;;;;;11.17;100.00;101757.42;105443;1254;60799;-72
2023/09/18 01:20:45;;;;;;;38.90;28.40;;;;;;;11.18;100.00;101762.47;105628;1257;60178;-70
2023/09/18 01:23:12;;;;;;;38.00;30.50;;;;;;;11.19;100.00;101763.49;105625;1254;72076;-71
2023/09/18 01:25:41;;;;;;;38.70;30.30;;;;;;;11.18;100.00;101758.63;105576;1254;62489;-69
2023/09/18 01:28:09;;;;;;;38.30;30.40;;;;;;;11.16;100.00;101762.56;105742;1257;73404;-70
2023/09/18 01:30:38;;;;;;;38.60;28.80;;;;;;;11.14;100.00;101761.93;105768;1256;60820;-71
2023/09/18 01:33:05;;;;;;;37.70;29.30;;;;;;;11.13;100.00;101758.83;105791;1254;60220;-69
2023/09/18 01:35:33;;;;;;;39.90;31.20;;;;;;;11.12;100.00;101755.58;105655;1254;73012;-71
2023/09/18 01:38:01;;;;;;;39.20;28.20;;;;;;;11.10;100.00;101755.48;105747;1257;62709;-71
2023/09/18 01:40:29;;;;;;;39.00;28.20;;;;;;;11.08;100.00;101753.27;109455;1252;71546;-69
2023/09/18 01:42:58;;;;;;;38.00;29.60;;;;;;;11.07;100.00;101755.27;109422;1254;62659;-70
2023/09/18 01:45:26;;;;;;;39.20;28.30;;;;;;;11.04;100.00;101758.19;109540;1253;58968;-69
2023/09/18 01:47:53;;;;;;;38.60;29.10;;;;;;;11.00;100.00;101759.23;109601;1252;71661;-70
2023/09/18 01:50:21;;;;;;;34.80;27.40;;;;;;;10.99;100.00;101758.77;109535;1253;63689;-69
2023/09/18 01:52:48;;;;;;;34.70;27.70;;;;;;;10.98;100.00;101756.86;109464;1253;72772;-70
2023/09/18 01:55:16;;;;;;;34.20;26.50;;;;;;;10.98;100.00;101757.23;109501;1253;60582;-70
2023/09/18 01:57:43;;;;;;;33.70;28.00;;;;;;;10.99;100.00;101759.80;109547;1253;60061;-69
2023/09/18 02:00:12;;;;;;;32.20;26.30;;;;;;;10.99;100.00;101760.50;109493;1253;73126;-70
2023/09/18 02:02:43;;;;;;;32.90;25.90;;;;;;;10.98;100.00;101763.50;109623;1253;63606;-69
2023/09/18 02:05:30;;;;;;;36.30;25.80;;;;;;;10.96;100.00;101762.02;109563;1252;72863;-70
2023/09/18 02:07:58;;;;;;;33.90;26.40;;;;;;;10.95;100.00;101763.98;109736;1254;60444;-70
2023/09/18 02:10:25;;;;;;;30.40;24.90;;;;;;;10.94;100.00;101765.09;109649;1254;58957;-70
2023/09/18 02:12:54;;;;;;;34.00;26.20;;;;;;;10.94;100.00;101769.31;109554;1253;73028;-69
2023/09/18 02:15:22;;;;;;;33.20;25.60;;;;;;;10.93;100.00;101771.08;109443;1254;63528;-70
2023/09/18 02:17:49;;;;;;;33.30;25.30;;;;;;;10.93;100.00;101771.97;109572;1252;71250;-70
2023/09/18 02:20:18;;;;;;;31.80;23.30;;;;;;;10.92;100.00;101769.58;109599;1254;61768;-70
2023/09/18 02:22:46;;;;;;;32.60;24.30;;;;;;;10.91;100.00;101771.69;109626;1252;60044;-70
2023/09/18 02:25:14;;;;;;;35.10;24.40;;;;;;;10.90;100.00;101768.95;109620;1253;73100;-69
2023/09/18 02:27:41;;;;;;;36.70;26.20;;;;;;;10.90;100.00;101767.20;109653;1252;62336;-70
2023/09/18 02:30:09;;;;;;;31.60;24.90;;;;;;;10.90;100.00;101768.44;109546;1252;72698;-70
2023/09/18 02:32:37;;;;;;;31.10;25.90;;;;;;;10.91;100.00;101765.08;109524;1251;61700;-69
2023/09/18 02:35:07;;;;;;;33.90;25.50;;;;;;;10.91;100.00;101761.23;109660;1252;61318;-70
2023/09/18 02:37:34;;;;;;;31.00;23.70;;;;;;;10.92;100.00;101761.00;109534;1252;72710;-70
2023/09/18 02:40:02;;;;;;;38.60;30.20;;;;;;;10.92;100.00;101756.96;109497;1254;63760;-70
2023/09/18 02:42:29;;;;;;;37.00;27.50;;;;;;;10.94;100.00;101756.91;109513;1251;73171;-72
2023/09/18 02:44:58;;;;;;;35.60;25.00;;;;;;;10.93;100.00;101758.64;109556;1256;61780;-69
2023/09/18 02:47:25;;;;;;;31.10;24.50;;;;;;;10.93;100.00;101766.36;109523;1253;59370;-70
2023/09/18 02:49:53;;;;;;;30.40;24.70;;;;;;;10.92;100.00;101765.20;109521;1253;71855;-70
2023/09/18 02:52:21;;;;;;;33.10;24.20;;;;;;;10.92;100.00;101765.89;109479;1252;63713;-69
2023/09/18 02:54:48;;;;;;;33.10;24.60;;;;;;;10.92;100.00;101762.40;109506;1253;71770;-70
2023/09/18 02:57:16;;;;;;;34.40;25.20;;;;;;;10.91;100.00;101766.80;109633;1252;60416;-72
2023/09/18 02:59:44;;;;;;;31.30;25.10;;;;;;;10.91;100.00;101762.79;109533;1252;58781;-70
2023/09/18 03:02:11;;;;;;;31.00;24.40;;;;;;;10.90;100.00;101765.26;109498;1253;72720;-71
2023/09/18 03:04:39;;;;;;;32.50;24.00;;;;;;;10.89;100.00;101762.17;109511;1252;62885;-72
2023/09/18 03:07:07;;;;;;;30.40;23.60;;;;;;;10.87;100.00;101768.20;109444;1254;71490;-71
2023/09/18 03:09:35;;;;;;;28.40;23.60;;;;;;;10.85;100.00;101766.90;109581;1253;60686;-70
2023/09/18 03:12:03;;;;;;;32.10;22.70;;;;;;;10.82;100.00;101767.02;109480;1252;60039;-70
2023/09/18 03:14:30;;;;;;;27.80;21.30;;;;;;;10.79;100.00;101766.08;109529;1252;72868;-72
2023/09/18 03:16:58;;;;;;;28.00;23.50;;;;;;;10.77;100.00;101770.35;109497;1253;62250;-70
2023/09/18 03:19:26;;;;;;;30.30;23.30;;;;;;;10.74;100.00;101771.89;109528;1252;72939;-69
2023/09/18 03:21:54;;;;;;;34.30;26.10;;;;;;;10.73;100.00;101773.34;109411;1256;60754;-71
2023/09/18 03:24:22;;;;;;;25.60;22.80;;;;;;;10.72;100.00;101775.65;109674;1253;58737;-71
2023/09/18 03:26:49;;;;;;;30.00;22.60;;;;;;;10.72;100.00;101777.23;109509;1253;73182;-71
2023/09/18 03:29:17;;;;;;;31.90;23.40;;;;;;;10.73;100.00;101778.08;109504;1253;62272;-70
2023/09/18 03:31:44;;;;;;;37.00;24.20;;;;;;;10.72;100.00;101777.91;109471;1252;72505;-71
2023/09/18 03:34:13;;;;;;;29.00;22.60;;;;;;;10.71;100.00;101780.73;109561;1253;61713;-71
2023/09/18 03:36:40;;;;;;;30.20;22.50;;;;;;;10.70;100.00;101777.98;109543;1252;60030;-70
2023/09/18 03:39:09;;;;;;;28.40;23.80;;;;;;;10.70;100.00;101778.20;109478;1253;73852;-70
2023/09/18 03:41:37;;;;;;;27.00;20.90;;;;;;;10.69;100.00;101779.80;109628;1251;64083;-71
2023/09/18 03:44:04;;;;;;;32.00;24.80;;;;;;;10.68;100.00;101781.94;109521;1252;71384;-70
2023/09/18 03:46:32;;;;;;;30.80;24.60;;;;;;;10.68;100.00;101783.70;109523;1253;60629;-71
2023/09/18 03:48:59;;;;;;;30.80;22.90;;;;;;;10.68;100.00;101785.77;109544;1253;60088;-69
2023/09/18 03:51:27;;;;;;;35.50;23.00;;;;;;;10.70;100.00;101783.80;109519;1251;73745;-70
2023/09/18 03:53:55;;;;;;;26.70;21.50;;;;;;;10.71;100.00;101784.97;109604;1252;63571;-70
2023/09/18 03:56:23;;;;;;;28.10;21.30;;;;;;;10.74;100.00;101788.36;109617;1253;72747;-70
2023/09/18 03:58:51;;;;;;;30.60;22.70;;;;;;;10.76;100.00;101789.31;109407;1253;60543;-71
2023/09/18 04:01:19;;;;;;;31.50;23.10;;;;;;;10.79;100.00;101791.79;109526;1253;58792;-71
2023/09/18 04:03:46;;;;;;;29.80;21.20;;;;;;;10.83;100.00;101788.70;109431;1253;73849;-69
2023/09/18 04:06:14;;;;;;;31.00;22.00;;;;;;;10.87;100.00;101791.29;109671;1252;62343;-70
2023/09/18 04:08:41;;;;;;;30.60;24.80;;;;;;;10.91;100.00;101791.64;109662;1252;72691;-71
2023/09/18 04:11:09;;;;;;;29.60;24.00;;;;;;;10.95;100.00;101790.23;109599;1253;61656;-70
2023/09/18 04:13:37;;;;;;;41.40;24.40;;;;;;;11.00;100.00;101785.66;109670;1253;58223;-69
2023/09/18 04:16:05;;;;;;;32.40;25.30;;;;;;;11.05;100.00;101786.00;109404;1251;72609;-71
2023/09/18 04:18:32;;;;;;;28.40;24.00;;;;;;;11.09;100.00;101787.02;109448;1252;63764;-70
2023/09/18 04:21:00;;;;;;;33.30;23.70;;;;;;;11.13;100.00;101790.36;109433;1252;71400;-70
2023/09/18 04:23:28;;;;;;;37.00;25.80;;;;;;;11.16;100.00;101794.23;109451;1253;62481;-72
2023/09/18 04:25:58;;;;;;;34.70;23.70;;;;;;;11.22;100.00;101794.71;109551;1253;60253;-70
2023/09/18 04:28:25;;;;;;;33.10;25.60;;;;;;;11.26;100.00;101796.61;109455;1253;73892;-71
2023/09/18 04:30:53;;;;;;;34.40;26.00;;;;;;;11.32;100.00;101797.07;109499;1254;62688;-71
2023/09/18 04:33:21;;;;;;;41.80;28.40;;;;;;;11.38;100.00;101798.89;109431;1252;71539;-71
2023/09/18 04:35:49;;;;;;;45.50;29.30;;;;;;;11.43;100.00;101795.51;109435;1254;61665;-70
2023/09/18 04:38:19;;;;;;;38.90;28.80;;;;;;;11.50;100.00;101797.31;109626;1252;60036;-70
2023/09/18 04:40:47;;;;;;;42.50;30.30;;;;;;;11.57;100.00;101798.92;109486;1253;75231;-71
2023/09/18 04:43:14;;;;;;;41.40;29.30;;;;;;;11.64;100.00;101797.71;109498;1252;62774;-71
2023/09/18 04:45:42;;;;;;;47.70;29.40;;;;;;;11.73;100.00;101792.59;109528;1252;70713;-71
2023/09/18 04:48:10;;;;;;;44.10;31.80;;;;;;;11.83;100.00;101793.01;109474;1251;60466;-70
2023/09/18 04:50:38;;;;;;;46.40;31.50;;;;;;;11.97;100.00;101790.45;109481;1256;59423;-70
2023/09/18 04:53:05;;;;;;;44.50;31.30;;;;;;;12.33;100.00;101782.23;109656;1251;72932;-70
2023/09/18 04:55:33;;;;;;;40.10;30.00;;;;;;;12.96;100.00;101781.73;109692;1250;62405;-70
2023/09/18 04:58:03;;;;;;;57.80;31.00;;;;;;;13.72;100.00;101779.16;109648;1253;71640;-71
2023/09/18 05:00:34;;;;;;;48.80;30.50;;;;;;;14.53;100.00;101783.40;109493;1251;61011;-70
2023/09/18 05:03:03;;;;;;;48.90;28.50;;;;;;;15.34;100.00;101785.51;109633;1251;58799;-71
2023/09/18 05:05:31;;;;;;;51.00;28.30;;;;;;;16.11;100.00;101788.23;109640;1251;74050;-69
2023/09/18 05:08:00;;;;;;;47.40;28.50;;;;;;;16.84;100.00;101787.50;109586;1251;62167;-69
2023/09/18 05:10:29;;;;;;;43.90;28.40;;;;;;;17.54;100.00;101791.20;109600;1251;72644;-71
2023/09/18 05:12:58;;;;;;;39.40;28.70;;;;;;;18.18;100.00;101794.94;109637;1251;60922;-69
2023/09/18 05:15:29;;;;;;;41.80;27.20;;;;;;;18.68;100.00;101795.79;109645;1251;60002;-71
2023/09/18 05:17:58;;;;;;;34.50;24.70;;;;;;;19.00;100.00;101794.98;109626;1251;72687;-70
2023/09/18 05:20:27;;;;;;;44.20;26.00;;;;;;;19.16;100.00;101798.19;109641;1251;63793;-70
2023/09/18 05:22:56;;;;;;;49.30;24.40;;;;;;;19.27;100.00;101798.73;109586;1251;72344;-70
2023/09/18 05:25:32;;;;;;;34.30;23.60;;;;;;;19.36;100.00;101798.21;109569;1252;62702;-71
2023/09/18 05:28:00;;;;;;;33.20;21.10;;;;;;;19.65;100.00;101796.66;109641;1251;60012;-71
2023/09/18 05:30:34;;;;;;;30.80;21.70;;;;;;;20.10;100.00;101799.10;109632;1251;73922;-72
2023/09/18 05:33:05;;;;;;;38.20;21.90;;;;;;;20.69;100.00;101798.50;109699;1251;62321;-72
2023/09/18 05:35:44;;;;;;;29.30;19.30;;;;;;;21.29;100.00;101796.21;109623;1251;72917;-71
2023/09/18 05:38:17;;;;;;;31.00;20.60;;;;;;;21.95;100.00;101797.04;109578;1251;62003;-69
2023/09/18 05:40:45;;;;;;;27.60;21.50;;;;;;;22.55;100.00;101795.68;109649;1251;58815;-71
2023/09/18 05:43:14;;;;;;;36.60;21.50;;;;;;;23.12;100.00;101791.80;109609;1251;72539;-72
2023/09/18 05:45:41;;;;;;;35.30;20.00;;;;;;;23.67;100.00;101792.48;109647;1251;63860;-71
2023/09/18 05:48:09;;;;;;;24.70;19.80;;;;;;;24.18;97.89;101789.83;109620;1251;72469;-72
2023/09/18 05:50:38;;;;;;;31.10;18.90;;;;;;;24.65;93.23;101788.70;109607;1253;58672;-71
2023/09/18 05:53:05;;;;;;;25.10;17.10;;;;;;;25.03;90.03;101783.02;109633;1251;58806;-71
2023/09/18 05:55:33;;;;;;;23.80;18.60;;;;;;;25.35;86.41;101780.26;109621;1251;74328;-71
2023/09/18 05:58:01;;;;;;;22.40;18.70;;;;;;;25.72;80.32;101774.96;109676;1250;64238;-71
2023/09/18 06:00:30;;;;;;;21.70;16.70;;;;;;;26.13;76.10;101772.38;109628;1251;72423;-73
2023/09/18 06:02:58;;;;;;;21.10;18.60;;;;;;;26.51;71.75;101771.48;109616;1253;58823;-70
2023/09/18 06:05:26;;;;;;;22.60;19.30;;;;;;;26.87;68.26;101770.02;109672;1251;58805;-71
2023/09/18 06:07:54;;;;;;;26.60;19.70;;;;;;;27.20;65.16;101765.58;109591;1251;73436;-71
2023/09/18 06:10:22;;;;;;;22.10;18.30;;;;;;;27.58;62.32;101767.23;109656;1251;62692;-71
2023/09/18 06:12:49;;;;;;;24.50;18.50;;;;;;;27.95;59.78;101766.45;109646;1253;73243;-71
2023/09/18 06:15:18;;;;;;;22.60;20.10;;;;;;;28.32;56.74;101767.27;109611;1251;60060;-70
2023/09/18 06:17:46;;;;;;;24.90;20.40;;;;;;;28.70;54.44;101760.11;109663;1251;59984;-71
2023/09/18 06:20:15;;;;;;;24.80;20.40;;;;;;;29.09;53.07;101762.69;109619;1250;73931;-72
2023/09/18 06:22:43;;;;;;;25.70;19.50;;;;;;;29.44;51.27;101756.30;109614;1251;65881;-71
2023/09/18 06:25:11;;;;;;;30.00;20.80;;;;;;;29.79;49.37;101761.09;109574;1251;71520;-71
2023/09/18 06:27:38;;;;;;;25.60;21.90;;;;;;;30.14;48.19;101760.38;109585;1253;62089;-70
2023/09/18 06:30:06;;;;;;;28.00;22.70;;;;;;;30.44;47.23;101762.70;109658;1251;58757;-70
2023/09/18 06:32:34;;;;;;;27.80;21.30;;;;;;;30.73;46.16;101761.38;109640;1251;74478;-71
2023/09/18 06:35:02;;;;;;;32.90;22.50;;;;;;;30.96;44.87;101762.80;109653;1251;64976;-71
2023/09/18 06:37:29;;;;;;;32.50;23.30;;;;;;;31.13;44.54;101765.95;109614;1251;72745;-70
2023/09/18 06:39:57;;;;;;;31.90;22.40;;;;;;;31.32;44.24;101769.01;109625;1253;59766;-72
2023/09/18 06:42:24;;;;;;;33.30;22.60;;;;;;;31.56;43.76;101774.96;109684;1251;60176;-71
2023/09/18 06:44:57;;;;;;;27.90;21.40;;;;;;;31.77;42.65;101774.69;109551;1251;73806;-71
2023/09/18 06:47:25;;;;;;;29.90;23.20;;;;;;;32.01;41.78;101778.58;109639;1251;62777;-71
2023/09/18 06:49:52;;;;;;;31.10;22.80;;;;;;;32.23;40.25;101777.64;109615;1251;74674;-71
2023/09/18 06:52:20;;;;;;;34.00;23.50;;;;;;;32.45;39.91;101777.04;109626;1253;58901;-72
2023/09/18 06:54:47;;;;;;;33.60;23.00;;;;;;;32.74;39.36;101777.77;109639;1251;60244;-71
2023/09/18 06:57:15;;;;;;;39.80;24.40;;;;;;;32.85;38.20;101775.21;109639;1251;75721;-71
2023/09/18 06:59:42;;;;;;;34.10;23.80;;;;;;;32.73;37.90;101777.45;109648;1251;62924;-71
2023/09/18 07:02:10;;;;;;;36.20;23.90;;;;;;;32.82;38.05;101777.73;109602;1251;72635;-71
2023/09/18 07:04:44;;;;;;;38.90;25.40;;;;;;;33.07;37.25;101776.30;109611;1251;58239;-70
2023/09/18 07:07:13;;;;;;;48.00;24.30;;;;;;;33.19;35.71;101775.61;109669;1251;58751;-71
2023/09/18 07:09:41;;;;;;;45.30;25.80;;;;;;;33.03;35.36;101776.47;109628;1251;73811;-70
2023/09/18 07:12:29;;;;;;;40.60;22.80;;;;;;;32.80;35.82;101776.77;109615;1251;63652;-71
2023/09/18 07:14:56;;;;;;;42.90;24.30;;;;;;;32.75;35.98;101776.35;109532;1251;71890;-71
2023/09/18 07:17:24;;;;;;;44.10;24.80;;;;;;;32.77;35.98;101777.95;109656;1251;58850;-72
2023/09/18 07:19:52;;;;;;;43.70;22.60;;;;;;;32.78;35.78;101776.77;109638;1251;58266;-72
2023/09/18 07:22:19;;;;;;;46.00;22.60;;;;;;;32.79;35.26;101778.11;109645;1251;72651;-71
2023/09/18 07:24:49;;;;;;;43.40;22.60;;;;;;;32.72;35.23;101773.90;109490;1251;62411;-71
2023/09/18 07:27:17;;;;;;;35.90;21.20;;;;;;;32.68;35.97;101778.25;109610;1251;70715;-72
2023/09/18 07:29:45;;;;;;;31.20;19.30;;;;;;;32.75;36.59;101774.77;109592;1253;62105;-71
2023/09/18 07:32:13;;;;;;;28.00;18.60;;;;;;;32.83;37.29;101774.76;109647;1251;59374;-71
2023/09/18 07:34:56;;;;;;;24.80;17.20;;;;;;;32.99;37.26;101773.02;109669;1251;73701;-71
2023/09/18 07:37:24;;;;;;;24.20;18.40;;;;;;;33.27;36.95;101767.46;109673;1251;62258;-71
2023/09/18 07:39:53;;;;;;;26.80;19.40;;;;;;;33.55;36.73;101764.23;109614;1251;71534;-72
2023/09/18 07:42:24;;;;;;;23.20;20.00;;;;;;;33.67;36.55;101762.38;109601;1253;58857;-71
2023/09/18 07:44:52;;;;;;;23.10;18.40;;;;;;;33.64;35.33;101761.30;109689;1253;58997;-70
2023/09/18 07:47:20;;;;;;;21.30;14.50;;;;;;;33.73;34.95;101757.48;109633;1254;73046;-71
2023/09/18 07:49:47;;;;;;;18.70;11.70;;;;;;;33.99;33.31;101757.40;109478;1254;62407;-70
2023/09/18 07:52:15;;;;;;;19.30;13.50;;;;;;;34.29;32.17;101760.96;109436;1254;72697;-71
2023/09/18 07:54:43;;;;;;;22.50;14.40;;;;;;;34.27;30.74;101754.32;109441;1254;58811;-71
2023/09/18 07:57:11;;;;;;;19.80;12.70;;;;;;;34.06;30.74;101757.10;109453;1254;58628;-70
2023/09/18 07:59:39;;;;;;;24.20;13.30;;;;;;;34.08;30.59;101756.41;109407;1254;75719;-72
2023/09/18 08:02:09;;;;;;;17.90;13.80;;;;;;;34.16;30.58;101753.14;109463;1254;63722;-71
2023/09/18 08:04:36;;;;;;;17.60;11.30;;;;;;;34.33;30.79;101745.75;109405;1254;71853;-71
2023/09/18 08:07:06;;;;;;;16.80;11.70;;;;;;;34.44;30.29;101746.16;109404;1254;58798;-72
2023/09/18 08:09:37;;;;;;;18.20;10.60;;;;;;;34.57;29.85;101744.75;109419;1254;59297;-71
2023/09/18 08:12:05;;;;;;;11.90;8.60;;;;;;;34.69;29.60;101745.48;109439;1254;72619;-73
2023/09/18 08:14:36;;;;;;;12.30;8.20;;;;;;;34.76;29.21;101741.05;109442;1254;63729;-72
2023/09/18 08:17:04;;;;;;;10.70;7.50;;;;;;;34.82;29.07;101743.55;109423;1254;74450;-72
2023/09/18 08:19:35;;;;;;;15.30;9.50;;;;;;;35.09;28.78;101742.16;109245;1254;59713;-71
2023/09/18 08:22:05;;;;;;;10.10;7.30;;;;;;;35.35;28.42;101737.85;109449;1254;59904;-71
2023/09/18 08:24:33;;;;;;;10.60;8.20;;;;;;;35.52;28.45;101741.91;109417;1254;72463;-71
2023/09/18 08:27:00;;;;;;;8.40;7.40;;;;;;;35.63;27.75;101738.52;109435;1254;61863;-71
2023/09/18 08:29:28;;;;;;;8.80;7.90;;;;;;;35.71;27.69;101736.88;109263;1254;72710;-72
2023/09/18 08:31:55;;;;;;;8.60;7.60;;;;;;;35.88;27.45;101734.81;109374;1257;60928;-71
2023/09/18 08:34:23;;;;;;;8.70;7.90;;;;;;;35.99;27.54;101731.96;109473;1254;61874;-72
2023/09/18 08:36:53;;;;;;;9.60;8.70;;;;;;;36.13;27.04;101731.06;109427;1254;72120;-70
2023/09/18 08:39:21;;;;;;;10.60;8.90;;;;;;;36.14;26.78;101730.52;109453;1254;63538;-71
2023/09/18 08:41:50;;;;;;;13.30;7.70;;;;;;;36.18;26.67;101729.45;109421;1254;72671;-71
2023/09/18 08:44:17;;;;;;;7.90;6.70;;;;;;;36.30;26.63;101730.02;109232;1254;60422;-71
2023/09/18 08:46:45;;;;;;;7.60;6.90;;;;;;;36.48;26.47;101729.40;109197;1254;58171;-72
2023/09/18 08:49:12;;;;;;;8.40;6.50;;;;;;;36.62;26.12;101728.30;109251;1254;65046;-72
2023/09/18 08:51:40;;;;;;;9.80;7.10;;;;;;;36.61;25.85;101726.69;109291;1254;58336;-71
2023/09/18 08:54:08;;;;;;;8.90;6.90;;;;;;;36.58;25.90;101722.40;109268;1254;64133;-71
2023/09/18 08:56:35;;;;;;;7.80;7.00;;;;;;;36.50;25.73;101720.80;109394;1254;58865;-71
2023/09/18 08:59:03;;;;;;;6.90;5.80;;;;;;;36.55;25.52;101720.63;109322;1254;58122;-70
2023/09/18 09:01:30;;;;;;;6.70;5.90;;;;;;;36.55;25.21;101719.33;109344;1254;73760;-72
2023/09/18 09:04:00;;;;;;;7.60;5.90;;;;;;;36.55;24.99;101713.19;109484;1254;58258;-71
2023/09/18 09:06:27;;;;;;;6.50;5.90;;;;;;;36.49;24.84;101713.66;109410;1259;62511;-71
2023/09/18 09:08:55;;;;;;;7.70;6.90;;;;;;;36.42;24.59;101710.57;109266;1254;58338;-71
2023/09/18 09:11:23;;;;;;;6.10;4.50;;;;;;;36.44;24.29;101709.52;109432;1254;58119;-72
2023/09/18 09:14:27;;;;;;;5.00;4.40;;;;;;;36.36;24.30;101709.88;109425;1254;74760;-73
2023/09/18 09:16:56;;;;;;;3.60;3.00;;;;;;;36.40;24.22;101708.29;109450;1254;58330;-75
2023/09/18 09:19:29;;;;;;;4.00;2.80;;;;;;;36.49;23.32;101708.64;109417;1254;62442;-71
2023/09/18 09:21:58;;;;;;;3.90;2.90;;;;;;;36.54;22.53;101708.70;109457;1254;58108;-72
2023/09/18 09:24:43;;;;;;;2.50;2.30;;;;;;;36.56;21.96;101706.56;109436;1254;58126;-73
2023/09/18 09:27:10;;;;;;;2.60;2.40;;;;;;;36.62;21.56;101700.92;109438;1254;66285;-73
2023/09/18 09:29:38;;;;;;;2.40;1.90;;;;;;;36.62;21.87;101701.19;109453;1253;58082;-71
2023/09/18 09:32:16;;;;;;;2.50;1.80;;;;;;;36.65;21.75;101702.14;109402;1257;75097;-71
2023/09/18 09:34:44;;;;;;;2.70;2.00;;;;;;;36.74;21.55;101703.15;109422;1257;58089;-74
2023/09/18 09:37:13;;;;;;;2.40;2.30;;;;;;;36.84;21.43;101697.41;109423;1254;58170;-77
2023/09/18 09:39:50;;;;;;;3.20;1.80;;;;;;;36.76;21.27;101698.21;109438;1254;65007;-73
2023/09/18 09:42:24;;;;;;;1.70;1.60;;;;;;;36.74;21.89;101701.84;109377;1254;58129;-72
2023/09/18 09:45:06;;;;;;;1.90;1.80;;;;;;;36.83;20.93;101698.41;109382;1260;66020;-72
2023/09/18 09:47:35;;;;;;;1.90;1.20;;;;;;;36.86;20.21;101697.93;109352;1260;58153;-72
2023/09/18 09:50:15;;;;;;;1.60;1.50;;;;;;;36.80;20.24;101693.72;109309;1254;58180;-74
2023/09/18 09:52:44;;;;;;;1.60;1.50;;;;;;;36.72;20.57;101692.56;109310;1254;63688;-72
2023/09/18 09:55:28;;;;;;;3.60;2.40;;;;;;;36.75;20.63;101690.33;109403;1254;58523;-72
2023/09/18 09:57:59;;;;;;;2.00;1.90;;;;;;;36.73;20.97;101691.05;109380;1254;63339;-73
2023/09/18 10:00:32;;;;;;;2.60;2.10;;;;;;;36.71;21.04;101690.91;109354;1254;58112;-73
2023/09/18 10:03:01;;;;;;;2.20;2.00;;;;;;;36.75;21.26;101686.83;109384;1254;58957;-72
2023/09/18 10:05:32;;;;;;;2.50;2.30;;;;;;;36.69;20.81;101686.00;109426;1254;66934;-74
2023/09/18 10:08:06;;;;;;;3.60;2.10;;;;;;;36.64;20.90;101685.14;109429;1254;58123;-73
2023/09/18 10:10:47;;;;;;;2.10;1.80;;;;;;;36.62;20.66;101684.27;109303;1254;66030;-71
2023/09/18 10:13:20;;;;;;;1.70;1.50;;;;;;;36.59;20.52;101683.06;109394;1257;58760;-71
2023/09/18 10:15:49;;;;;;;1.70;1.60;;;;;;;36.54;20.08;101679.35;109287;1254;58118;-73
2023/09/18 10:18:22;;;;;;;1.70;1.60;;;;;;;36.55;20.11;101677.08;109429;1254;73179;-72
2023/09/18 10:20:51;;;;;;;2.30;2.10;;;;;;;36.51;20.59;101680.27;109464;1254;58115;-73
2023/09/18 10:23:26;;;;;;;2.70;2.20;;;;;;;36.60;20.66;101678.41;109255;1254;71953;-72
2023/09/18 10:25:55;;;;;;;2.70;2.50;;;;;;;36.71;20.40;101675.15;109295;1254;58096;-72
2023/09/18 10:28:23;;;;;;;2.60;2.40;;;;;;;36.76;20.24;101670.66;109266;1254;60975;-71
2023/09/18 10:30:51;;;;;;;3.20;2.50;;;;;;;36.73;19.74;101668.58;109406;1254;65053;-72
2023/09/18 10:33:18;;;;;;;5.70;2.70;;;;;;;36.48;19.61;101669.33;109426;1254;64002;-71
2023/09/18 10:35:47;;;;;;;3.10;2.80;;;;;;;36.24;19.83;101666.05;109188;1254;74884;-72
2023/09/18 10:38:15;;;;;;;5.30;2.80;;;;;;;36.21;20.34;101669.09;109258;1254;58111;-72
2023/09/18 10:40:43;;;;;;;2.80;2.60;;;;;;;36.32;20.90;101664.65;109452;1254;58167;-71
2023/09/18 10:43:10;;;;;;;4.90;3.40;;;;;;;36.41;20.54;101659.17;109410;1254;67245;-71
2023/09/18 10:45:38;;;;;;;4.30;2.60;;;;;;;36.45;20.52;101661.66;109255;1261;66034;-73
2023/09/18 10:48:07;;;;;;;4.60;2.90;;;;;;;36.39;20.47;101656.73;109457;1254;71393;-72
2023/09/18 10:50:35;;;;;;;5.70;3.70;;;;;;;36.42;20.49;101654.27;109374;1255;58100;-72
2023/09/18 10:53:03;;;;;;;4.80;3.60;;;;;;;36.39;20.52;101652.19;109427;1254;58214;-72
2023/09/18 10:55:31;;;;;;;5.10;3.30;;;;;;;36.30;20.42;101654.63;109287;1254;66869;-71
2023/09/18 11:03:52;;;;;;;4.80;2.90;;;;;;;36.24;20.34;101652.02;102652;1291;600885;-71
2023/09/18 11:06:26;;;;;;;3.50;3.20;;;;;;;36.06;20.18;101649.79;104667;1271;59334;-74
2023/09/18 11:09:03;;;;;;;3.20;2.80;;;;;;;35.72;19.92;101645.19;104909;1271;60501;-74
2023/09/18 11:11:32;;;;;;;7.80;3.30;;;;;;;35.42;19.83;101643.63;104857;1266;72378;-75
2023/09/18 11:14:02;;;;;;;10.00;3.10;;;;;;;35.21;20.28;101641.41;104839;1265;65316;-73
2023/09/18 11:16:30;;;;;;;3.60;3.10;;;;;;;35.06;20.57;101634.53;104466;1269;267352;-75